createdAt,value
2022-11-30T00:02:08.879Z,7.47
2022-11-30T00:07:12.972Z,7.47
2022-11-30T00:12:15.858Z,7.44
2022-11-30T00:17:18.570Z,7.47
2022-11-30T00:22:22.615Z,7.46
2022-11-30T00:27:25.339Z,7.43
2022-11-30T00:32:29.016Z,7.37
2022-11-30T00:37:33.744Z,7.25
2022-11-30T00:42:36.424Z,7.10
2022-11-30T00:47:39.186Z,6.94
2022-11-30T00:52:43.214Z,6.88
2022-11-30T00:57:45.894Z,6.82
2022-11-30T01:02:48.693Z,6.81
2022-11-30T01:07:52.857Z,6.75
2022-11-30T01:12:55.638Z,6.61
2022-11-30T01:18:00.329Z,6.59
2022-11-30T01:23:04.461Z,6.73
2022-11-30T01:28:07.216Z,6.65
2022-11-30T01:33:09.938Z,6.59
2022-11-30T01:38:14.072Z,6.58
2022-11-30T01:43:16.873Z,6.59
2022-11-30T01:48:19.605Z,6.41
2022-11-30T01:53:24.662Z,6.35
2022-11-30T01:58:29.175Z,6.24
2022-11-30T02:03:36.858Z,6.27
2022-11-30T02:08:41.042Z,6.22
2022-11-30T02:13:55.130Z,6.15
2022-11-30T02:19:04.974Z,6.19
2022-11-30T02:24:23.465Z,6.18
2022-11-30T02:29:30.023Z,6.16
2022-11-30T02:34:34.379Z,5.98
2022-11-30T02:39:37.180Z,5.92
2022-11-30T02:44:41.520Z,5.80
2022-11-30T02:49:49.873Z,5.76
2022-11-30T02:54:52.846Z,5.72
2022-11-30T02:59:56.991Z,5.80
2022-11-30T03:04:59.700Z,5.58
2022-11-30T03:10:02.463Z,5.73
2022-11-30T03:15:07.372Z,5.61
2022-11-30T03:20:10.854Z,5.73
2022-11-30T03:25:13.581Z,5.65
2022-11-30T03:30:17.971Z,5.83
2022-11-30T03:35:20.914Z,5.74
2022-11-30T03:40:23.632Z,5.83
2022-11-30T03:45:27.714Z,5.92
2022-11-30T03:50:30.408Z,5.79
2022-11-30T03:55:33.107Z,5.89
2022-11-30T04:00:37.739Z,5.80
2022-11-30T04:05:40.538Z,5.84
2022-11-30T04:10:43.299Z,5.86
2022-11-30T04:15:48.898Z,5.80
2022-11-30T04:20:52.185Z,5.75
2022-11-30T04:25:54.996Z,5.90
2022-11-30T04:31:00.411Z,5.86
2022-11-30T04:36:05.470Z,5.89
2022-11-30T04:41:08.991Z,5.88
2022-11-30T04:46:13.239Z,5.92
2022-11-30T04:51:16.004Z,5.84
2022-11-30T04:56:18.803Z,5.66
2022-11-30T05:01:23.022Z,5.89
2022-11-30T05:06:25.837Z,5.82
2022-11-30T05:11:28.582Z,5.81
2022-11-30T05:16:32.781Z,5.85
2022-11-30T05:21:35.948Z,5.98
2022-11-30T05:26:38.829Z,5.83
2022-11-30T05:31:42.994Z,5.92
2022-11-30T05:36:45.717Z,5.86
2022-11-30T05:41:48.487Z,5.79
2022-11-30T05:46:52.675Z,5.76
2022-11-30T05:51:55.461Z,5.77
2022-11-30T05:56:58.182Z,5.81
2022-11-30T06:02:02.383Z,5.75
2022-11-30T06:07:05.252Z,5.75
2022-11-30T06:12:09.393Z,5.77
2022-11-30T06:17:13.479Z,5.79
2022-11-30T06:22:16.207Z,5.75
2022-11-30T06:27:20.024Z,5.65
2022-11-30T06:32:24.753Z,5.75
2022-11-30T06:37:27.622Z,5.72
2022-11-30T06:42:30.616Z,5.70
2022-11-30T06:47:34.693Z,5.67
2022-11-30T06:52:37.439Z,5.79
2022-11-30T06:57:40.170Z,5.84
2022-11-30T07:02:44.462Z,5.85
2022-11-30T07:07:47.225Z,5.80
2022-11-30T07:12:50.041Z,5.74
2022-11-30T07:17:54.088Z,5.78
2022-11-30T07:22:56.907Z,5.87
2022-11-30T07:27:59.703Z,5.91
2022-11-30T07:33:03.738Z,5.89
2022-11-30T07:38:09.795Z,5.87
2022-11-30T07:43:12.732Z,5.98
2022-11-30T07:48:16.770Z,5.99
2022-11-30T07:53:19.483Z,5.93
2022-11-30T07:58:22.139Z,7.94
2022-11-30T08:03:26.314Z,7.74
2022-11-30T08:08:31.427Z,6.38
2022-11-30T08:13:34.398Z,6.28
2022-11-30T08:18:38.491Z,6.19
2022-11-30T08:23:42.590Z,6.08
2022-11-30T08:28:46.591Z,5.92
2022-11-30T08:33:51.126Z,6.14
2022-11-30T08:38:53.943Z,6.02
2022-11-30T08:43:56.821Z,6.04
2022-11-30T08:49:20.908Z,6.15
2022-11-30T08:54:23.603Z,6.08
2022-11-30T08:59:26.362Z,6.07
2022-11-30T09:04:30.370Z,5.96
2022-11-30T09:09:33.014Z,6.06
2022-11-30T09:14:36.007Z,6.12
2022-11-30T09:19:40.351Z,6.14
2022-11-30T09:24:43.020Z,5.93
2022-11-30T09:29:45.717Z,5.84
2022-11-30T09:34:50.921Z,6.01
2022-11-30T09:39:53.948Z,5.99
2022-11-30T09:45:03.152Z,5.86
2022-11-30T09:50:12.432Z,6.00
2022-11-30T09:55:19.121Z,5.95
2022-11-30T10:00:26.260Z,6.02
2022-11-30T10:05:47.649Z,6.22
2022-11-30T10:10:56.105Z,6.19
2022-11-30T10:16:08.519Z,6.06
2022-11-30T10:21:23.868Z,6.01
2022-11-30T10:26:32.066Z,6.06
2022-11-30T10:31:36.651Z,6.06
2022-11-30T10:36:43.414Z,6.12
2022-11-30T10:41:49.430Z,6.18
2022-11-30T10:46:57.831Z,6.10
2022-11-30T10:52:03.784Z,6.15
2022-11-30T10:57:07.776Z,6.26
2022-11-30T11:02:36.957Z,6.06
2022-11-30T11:07:55.090Z,6.02
2022-11-30T11:12:58.554Z,6.15
2022-11-30T11:18:22.621Z,6.13
2022-11-30T11:23:31.656Z,6.24
2022-11-30T11:28:35.732Z,6.16
2022-11-30T11:33:54.199Z,6.28
2022-11-30T11:38:59.321Z,6.12
2022-11-30T11:44:05.360Z,5.96
2022-11-30T11:49:19.540Z,5.96
2022-11-30T11:54:24.939Z,6.18
2022-11-30T11:59:39.747Z,6.05
2022-11-30T12:04:46.665Z,6.28
2022-11-30T12:09:59.231Z,6.13
2022-11-30T12:15:03.320Z,6.10
2022-11-30T12:20:14.284Z,6.33
2022-11-30T12:25:24.311Z,6.09
2022-11-30T12:30:30.418Z,6.29
2022-11-30T12:35:40.825Z,6.35
2022-11-30T12:40:51.724Z,6.26
2022-11-30T12:46:00.072Z,6.36
2022-11-30T12:51:11.467Z,6.39
2022-11-30T12:56:23.457Z,6.40
2022-11-30T13:01:39.251Z,6.56
2022-11-30T13:06:43.808Z,6.39
2022-11-30T13:11:50.510Z,6.19
2022-11-30T13:16:59.357Z,6.25
2022-11-30T13:22:07.358Z,6.24
2022-11-30T13:27:16.271Z,6.17
2022-11-30T13:32:55.294Z,6.16
2022-11-30T13:37:42.225Z,6.25
2022-11-30T13:42:51.586Z,5.95
2022-11-30T13:47:55.875Z,5.93
2022-11-30T13:53:22.004Z,6.14
2022-11-30T13:58:29.920Z,5.85
2022-11-30T14:03:33.240Z,6.05
2022-11-30T14:08:37.962Z,6.01
2022-11-30T14:13:42.283Z,5.80
2022-11-30T14:18:45.648Z,5.87
2022-11-30T14:23:53.497Z,5.92
2022-11-30T14:29:04.068Z,5.78
2022-11-30T14:34:11.746Z,5.83
2022-11-30T14:39:28.756Z,5.97
2022-11-30T14:44:37.140Z,5.76
2022-11-30T14:49:46.521Z,5.93
2022-11-30T14:54:54.148Z,5.85
2022-11-30T14:59:58.547Z,5.77
2022-11-30T15:05:01.514Z,5.64
2022-11-30T15:10:07.391Z,5.57
2022-11-30T15:15:20.824Z,5.79
2022-11-30T15:20:32.619Z,5.77
2022-11-30T15:25:38.117Z,5.82
2022-11-30T15:30:44.022Z,5.67
2022-11-30T15:36:12.415Z,5.55
2022-11-30T15:41:19.431Z,5.56
2022-11-30T15:46:35.263Z,5.44
2022-11-30T15:51:39.660Z,5.59
2022-11-30T15:56:42.454Z,5.45
2022-11-30T16:02:04.801Z,5.33
2022-11-30T16:07:17.470Z,5.36
2022-11-30T16:12:30.574Z,5.38
2022-11-30T16:17:35.182Z,5.22
2022-11-30T16:22:38.524Z,5.36
2022-11-30T16:27:41.751Z,5.31
2022-11-30T16:32:46.128Z,5.47
2022-11-30T16:37:49.054Z,5.41
2022-11-30T16:42:52.732Z,5.42
2022-11-30T16:47:56.808Z,5.30
2022-11-30T16:52:59.834Z,5.40
2022-11-30T16:58:02.895Z,5.26
2022-11-30T17:03:09.470Z,5.31
2022-11-30T17:08:12.582Z,5.16
2022-11-30T17:13:17.966Z,5.15
2022-11-30T17:18:22.208Z,5.26
2022-11-30T17:23:24.970Z,5.22
2022-11-30T17:28:27.721Z,5.16
2022-11-30T17:33:33.795Z,5.10
2022-11-30T17:38:37.082Z,5.07
2022-11-30T17:43:39.879Z,5.16
2022-11-30T17:48:44.625Z,5.18
2022-11-30T17:53:47.724Z,5.20
2022-11-30T17:58:50.735Z,5.21
2022-11-30T18:03:56.205Z,5.26
2022-11-30T18:08:59.269Z,5.24
2022-11-30T18:14:03.482Z,5.27
2022-11-30T18:19:13.319Z,5.32
2022-11-30T18:24:17.274Z,5.38
2022-11-30T18:29:22.669Z,5.26
2022-11-30T18:34:27.232Z,5.31
2022-11-30T18:39:29.929Z,5.37
2022-11-30T18:44:32.648Z,5.44
2022-11-30T18:49:36.758Z,5.38
2022-11-30T18:54:39.501Z,5.38
2022-11-30T18:59:42.407Z,5.37
2022-11-30T19:04:46.959Z,5.38
2022-11-30T19:09:50.303Z,5.47
2022-11-30T19:14:54.121Z,5.42
2022-11-30T19:19:58.327Z,5.49
2022-11-30T19:25:01.159Z,5.37
2022-11-30T19:30:05.784Z,5.38
2022-11-30T19:35:10.466Z,5.44
2022-11-30T19:40:14.156Z,5.49
2022-11-30T19:45:16.932Z,5.50
2022-11-30T19:50:21.178Z,5.51
2022-11-30T19:55:24.032Z,5.49
2022-11-30T20:00:26.907Z,5.47
2022-11-30T20:05:31.133Z,5.55
2022-11-30T20:10:33.879Z,5.55
2022-11-30T20:15:39.057Z,5.50
2022-11-30T20:20:43.208Z,5.53
2022-11-30T20:25:46.025Z,5.54
2022-11-30T20:30:48.864Z,5.51
2022-11-30T20:35:53.028Z,5.49
2022-11-30T20:40:55.885Z,5.49
2022-11-30T20:45:58.715Z,5.49
2022-11-30T20:56:35.144Z,5.47
2022-11-30T21:01:37.937Z,5.50
2022-11-30T21:06:45.653Z,5.48
2022-11-30T21:11:49.389Z,5.56
2022-11-30T21:16:52.179Z,5.52
2022-11-30T21:21:56.625Z,5.48
2022-11-30T21:26:59.340Z,5.43
2022-11-30T21:32:02.086Z,5.48
2022-11-30T21:37:06.269Z,5.41
2022-11-30T21:42:09.777Z,5.40
2022-11-30T21:47:14.415Z,5.42
2022-11-30T21:52:18.576Z,5.47
2022-11-30T21:57:21.534Z,5.41
2022-11-30T22:02:24.284Z,5.38
2022-11-30T22:07:32.450Z,5.42
2022-11-30T22:12:35.180Z,5.38
2022-11-30T22:17:37.900Z,5.27
2022-11-30T22:22:41.960Z,5.36
2022-11-30T22:27:44.662Z,5.30
2022-11-30T22:32:47.408Z,5.36
2022-11-30T22:37:51.496Z,5.38
2022-11-30T22:42:54.217Z,5.47
2022-11-30T22:47:56.927Z,5.36
2022-11-30T22:53:03.449Z,5.37
2022-11-30T22:58:06.551Z,5.43
2022-11-30T23:03:09.323Z,5.46
2022-11-30T23:08:13.556Z,5.36
2022-11-30T23:13:16.438Z,5.37
2022-11-30T23:18:19.178Z,5.40
2022-11-30T23:23:23.637Z,5.47
2022-11-30T23:28:26.416Z,5.43
2022-11-30T23:33:29.291Z,5.43
2022-11-30T23:38:33.395Z,5.38
2022-11-30T23:43:36.517Z,5.35
2022-11-30T23:48:39.641Z,5.09
2022-11-30T23:53:44.920Z,4.99
2022-11-30T23:58:48.594Z,4.99
